Time;durP1;ratioP1;P1;durP2;ratioP2;P2;SDS_P1;SDS_P2;PMS_P1;PMS_P2;Temp;Humidity;BMP_temperature;BMP_pressure;BME280_temperature;BME280_humidity;BME280_pressure;Samples;Min_cycle;Max_cycle;Signal;HPM_P1;HPM_P2
2024/01/31 00:00:09;;;;;;;0.80;0.73;;;22.40;44.10;;;;;;5132353;27;20282;-34
2024/01/31 00:02:36;;;;;;;0.95;0.77;;;22.40;44.10;;;;;;5137471;27;20031;-35
2024/01/31 00:05:02;;;;;;;1.13;0.90;;;22.30;44.10;;;;;;5146523;27;20088;-34
2024/01/31 00:07:29;;;;;;;0.80;0.73;;;22.30;44.20;;;;;;5141489;27;20050;-33
2024/01/31 00:09:55;;;;;;;0.88;0.70;;;22.30;44.20;;;;;;5132506;27;20024;-37
2024/01/31 00:12:21;;;;;;;1.08;0.70;;;22.30;44.20;;;;;;5130172;27;20023;-38
2024/01/31 00:14:47;;;;;;;1.00;0.90;;;22.30;44.20;;;;;;5132810;27;20028;-34
2024/01/31 00:17:13;;;;;;;0.93;0.82;;;22.30;44.20;;;;;;5141702;27;20091;-36
2024/01/31 00:19:39;;;;;;;1.25;1.08;;;22.30;44.20;;;;;;5139391;27;20031;-34
2024/01/31 00:22:05;;;;;;;1.73;1.10;;;22.30;44.20;;;;;;5138681;27;20086;-38
2024/01/31 00:24:31;;;;;;;1.70;0.90;;;22.30;44.20;;;;;;5135679;27;20063;-36
2024/01/31 00:26:58;;;;;;;0.82;0.65;;;22.30;44.30;;;;;;5142930;27;20042;-34
2024/01/31 00:29:24;;;;;;;2.00;0.80;;;22.20;44.20;;;;;;5130256;27;20028;-36
2024/01/31 00:31:50;;;;;;;0.70;0.70;;;22.20;44.20;;;;;;5136641;27;20043;-34
2024/01/31 00:34:17;;;;;;;1.00;0.90;;;22.30;44.30;;;;;;5123596;27;20107;-35
2024/01/31 00:36:43;;;;;;;1.25;1.05;;;22.30;44.30;;;;;;5137093;27;20019;-37
2024/01/31 00:39:10;;;;;;;4.00;1.00;;;22.30;44.30;;;;;;5135853;27;20028;-37
2024/01/31 00:41:36;;;;;;;1.75;1.20;;;22.20;44.40;;;;;;5140858;27;20023;-34
2024/01/31 00:44:02;;;;;;;0.85;0.85;;;22.20;44.40;;;;;;5129807;27;20043;-38
2024/01/31 00:46:28;;;;;;;0.70;0.70;;;22.20;44.40;;;;;;5134160;27;20027;-34
2024/01/31 00:48:55;;;;;;;1.00;0.90;;;22.20;44.50;;;;;;5135825;27;20083;-35
2024/01/31 00:51:21;;;;;;;0.95;0.88;;;22.20;44.40;;;;;;5129041;27;20150;-35
2024/01/31 00:53:47;;;;;;;1.08;0.93;;;22.30;44.40;;;;;;5127068;27;20040;-33
2024/01/31 00:56:13;;;;;;;1.00;0.90;;;22.20;44.30;;;;;;5135156;27;20468;-35
2024/01/31 00:58:39;;;;;;;1.10;0.98;;;22.20;44.40;;;;;;5133616;27;20035;-36
2024/01/31 01:01:06;;;;;;;1.20;1.10;;;22.20;44.50;;;;;;5126495;27;20031;-34
2024/01/31 01:03:32;;;;;;;1.20;0.93;;;22.20;44.60;;;;;;5131656;27;20023;-37
2024/01/31 01:05:58;;;;;;;1.20;1.00;;;22.20;44.70;;;;;;5133153;27;20765;-32
2024/01/31 01:08:24;;;;;;;1.33;1.10;;;22.20;44.60;;;;;;5128129;27;20023;-36
2024/01/31 01:10:50;;;;;;;1.27;0.95;;;22.20;44.50;;;;;;5145601;27;20023;-35
2024/01/31 01:13:16;;;;;;;2.60;1.00;;;22.20;44.50;;;;;;5126493;27;20035;-34
2024/01/31 01:15:43;;;;;;;1.17;0.90;;;22.20;44.60;;;;;;5125888;27;20118;-36
2024/01/31 01:18:09;;;;;;;1.55;1.00;;;22.20;44.60;;;;;;5133606;27;20024;-34
2024/01/31 01:20:35;;;;;;;1.65;1.00;;;22.10;44.60;;;;;;5117319;27;20039;-33
2024/01/31 01:23:01;;;;;;;1.15;1.00;;;22.10;44.60;;;;;;5114162;27;20019;-32
2024/01/31 01:25:27;;;;;;;0.80;0.80;;;22.10;44.60;;;;;;5125251;27;20043;-35
2024/01/31 01:27:53;;;;;;;0.77;0.70;;;22.20;44.60;;;;;;5126221;27;20031;-33
2024/01/31 01:30:20;;;;;;;1.23;0.95;;;22.20;44.60;;;;;;5129125;27;20079;-39
2024/01/31 01:32:47;;;;;;;1.48;1.25;;;22.10;44.50;;;;;;5125467;27;20034;-33
2024/01/31 01:35:13;;;;;;;1.67;1.33;;;22.10;44.50;;;;;;5131599;27;20039;-36
2024/01/31 01:37:40;;;;;;;0.90;0.80;;;22.10;44.60;;;;;;5125870;28;20020;-37
2024/01/31 01:40:08;;;;;;;1.38;1.05;;;22.10;44.80;;;;;;5129954;28;20041;-33
2024/01/31 01:42:40;;;;;;;1.10;1.00;;;22.10;44.80;;;;;;5127024;28;20150;-36
2024/01/31 01:45:07;;;;;;;1.20;0.90;;;22.20;44.70;;;;;;5130635;28;20057;-35
2024/01/31 01:47:36;;;;;;;1.33;1.10;;;22.20;44.70;;;;;;5131227;28;20065;-34
2024/01/31 01:50:03;;;;;;;1.20;1.10;;;22.10;44.70;;;;;;5128466;28;20604;-34
2024/01/31 01:52:30;;;;;;;0.90;0.80;;;22.10;44.80;;;;;;5112738;28;20047;-38
2024/01/31 01:54:57;;;;;;;1.55;0.98;;;22.10;44.80;;;;;;5128369;28;20032;-34
2024/01/31 01:57:23;;;;;;;1.15;0.95;;;22.10;44.80;;;;;;5126027;28;20035;-35
2024/01/31 01:59:49;;;;;;;2.72;1.00;;;22.10;44.80;;;;;;5127625;28;20038;-32
2024/01/31 02:02:17;;;;;;;0.88;0.82;;;22.10;44.80;;;;;;5136030;27;20497;-33
2024/01/31 02:04:43;;;;;;;1.02;0.93;;;22.10;44.90;;;;;;5132204;28;20031;-32
2024/01/31 02:07:09;;;;;;;1.00;0.90;;;22.10;45.00;;;;;;5122242;28;20043;-35
2024/01/31 02:09:35;;;;;;;1.27;1.00;;;22.10;45.00;;;;;;5127515;28;20023;-35
2024/01/31 02:12:02;;;;;;;1.10;0.93;;;22.10;45.00;;;;;;5107989;28;20506;-33
2024/01/31 02:14:28;;;;;;;1.02;0.93;;;22.10;45.20;;;;;;5129696;28;20019;-36
2024/01/31 02:16:57;;;;;;;1.20;0.95;;;22.10;45.10;;;;;;5127169;28;20019;-34
2024/01/31 02:19:23;;;;;;;1.02;0.93;;;22.10;44.90;;;;;;5133890;28;20537;-37
2024/01/31 02:21:49;;;;;;;1.30;1.20;;;22.10;44.90;;;;;;5124328;28;20036;-37
2024/01/31 02:24:16;;;;;;;0.90;0.80;;;22.10;45.00;;;;;;5101572;28;20081;-34
2024/01/31 02:26:42;;;;;;;1.30;1.13;;;22.10;45.10;;;;;;5126224;28;20044;-37
2024/01/31 02:29:08;;;;;;;1.27;1.15;;;22.10;45.60;;;;;;5127411;27;20831;-37
2024/01/31 02:31:34;;;;;;;1.23;1.10;;;22.00;45.10;;;;;;5140685;27;20035;-34
2024/01/31 02:34:00;;;;;;;1.42;1.10;;;22.10;45.10;;;;;;5141564;28;20027;-36
2024/01/31 02:36:26;;;;;;;1.30;1.20;;;22.10;45.00;;;;;;5140825;28;20042;-32
2024/01/31 02:38:53;;;;;;;1.60;1.20;;;22.10;45.00;;;;;;5140533;28;20042;-36
2024/01/31 02:41:19;;;;;;;1.15;1.00;;;22.10;45.10;;;;;;5142727;28;20027;-34
2024/01/31 02:43:45;;;;;;;1.20;1.10;;;22.10;45.10;;;;;;5131966;27;20026;-34
2024/01/31 02:46:11;;;;;;;1.30;1.10;;;22.10;45.10;;;;;;5133532;27;20772;-35
2024/01/31 02:48:37;;;;;;;1.65;1.10;;;22.00;45.00;;;;;;5135599;27;20023;-37
2024/01/31 02:51:03;;;;;;;2.08;1.20;;;22.00;45.10;;;;;;5140479;27;20035;-35
2024/01/31 02:53:30;;;;;;;1.00;0.90;;;22.10;45.10;;;;;;5136951;27;20098;-34
2024/01/31 02:55:56;;;;;;;1.45;1.20;;;22.10;45.20;;;;;;5136442;27;20038;-34
2024/01/31 02:58:22;;;;;;;1.15;0.88;;;22.10;45.20;;;;;;5135210;27;20062;-33
2024/01/31 03:00:48;;;;;;;1.95;1.40;;;22.00;45.20;;;;;;5132930;27;20024;-36
2024/01/31 03:03:14;;;;;;;1.33;1.10;;;22.00;45.20;;;;;;5140419;27;20024;-37
2024/01/31 03:05:40;;;;;;;1.60;1.50;;;22.00;45.20;;;;;;5141031;27;20162;-36
2024/01/31 03:08:07;;;;;;;1.80;1.25;;;22.00;45.20;;;;;;5141505;27;20057;-34
2024/01/31 03:10:33;;;;;;;1.70;1.30;;;22.10;45.20;;;;;;5133055;27;20574;-38
2024/01/31 03:12:59;;;;;;;1.60;1.10;;;22.10;45.30;;;;;;5142654;27;20038;-36
2024/01/31 03:15:45;;;;;;;6.60;1.30;;;22.10;45.30;;;;;;5085754;28;20064;-36
2024/01/31 03:18:11;;;;;;;2.42;1.40;;;22.00;45.50;;;;;;5089118;28;20604;-34
2024/01/31 03:20:38;;;;;;;1.33;1.17;;;22.00;45.80;;;;;;5083027;28;20096;-37
2024/01/31 03:23:04;;;;;;;3.40;1.48;;;22.00;46.10;;;;;;5086196;28;20020;-34
2024/01/31 03:25:30;;;;;;;1.85;1.17;;;22.00;45.80;;;;;;5095563;28;20032;-36
2024/01/31 03:27:56;;;;;;;3.03;1.13;;;22.10;45.70;;;;;;5099715;28;20062;-35
2024/01/31 03:30:23;;;;;;;1.52;1.20;;;22.10;45.80;;;;;;5095228;28;20508;-36
2024/01/31 03:32:49;;;;;;;1.33;1.20;;;22.10;45.90;;;;;;5096235;28;20065;-38
2024/01/31 03:35:15;;;;;;;1.85;1.30;;;22.00;45.90;;;;;;5092326;28;20028;-34
2024/01/31 03:37:43;;;;;;;1.05;0.90;;;22.00;45.90;;;;;;5095899;28;20039;-38
2024/01/31 03:40:10;;;;;;;2.65;1.00;;;22.00;45.90;;;;;;5087632;28;20036;-36
2024/01/31 03:42:36;;;;;;;2.22;1.30;;;22.10;45.80;;;;;;5081513;28;20174;-35
2024/01/31 03:45:04;;;;;;;1.58;1.20;;;22.10;45.80;;;;;;5096337;28;20032;-32
2024/01/31 03:47:34;;;;;;;1.20;1.10;;;22.10;45.80;;;;;;5096567;28;20045;-36
2024/01/31 03:50:00;;;;;;;1.40;1.20;;;22.10;45.70;;;;;;5093382;28;20140;-36
2024/01/31 03:52:27;;;;;;;2.03;1.27;;;22.00;45.60;;;;;;5107089;27;20053;-38
2024/01/31 03:54:53;;;;;;;1.38;1.15;;;22.00;45.60;;;;;;5136459;27;20020;-31
2024/01/31 03:57:19;;;;;;;1.20;1.10;;;22.00;46.00;;;;;;5137462;27;20049;-33
2024/01/31 03:59:45;;;;;;;1.40;1.20;;;22.10;45.90;;;;;;5140108;27;20031;-33
2024/01/31 04:02:11;;;;;;;1.65;1.27;;;22.10;45.90;;;;;;5121448;27;20042;-38
2024/01/31 04:04:38;;;;;;;1.55;1.20;;;22.10;46.00;;;;;;5132023;27;20056;-34
2024/01/31 04:07:04;;;;;;;1.98;1.27;;;22.10;46.10;;;;;;5119369;27;20042;-34
2024/01/31 04:09:30;;;;;;;1.38;1.02;;;22.10;46.10;;;;;;5141621;27;20042;-36
2024/01/31 04:11:59;;;;;;;1.80;1.40;;;22.10;46.00;;;;;;5131556;27;20027;-31
2024/01/31 04:14:26;;;;;;;1.70;1.15;;;22.00;46.00;;;;;;5128181;27;20027;-36
2024/01/31 04:16:52;;;;;;;1.90;1.33;;;22.10;46.00;;;;;;5133507;27;20034;-33
2024/01/31 04:19:18;;;;;;;3.17;1.30;;;22.10;46.00;;;;;;5136260;27;20038;-35
2024/01/31 04:21:44;;;;;;;1.35;1.13;;;22.10;46.00;;;;;;5137494;27;20122;-36
2024/01/31 04:24:10;;;;;;;1.20;1.05;;;22.10;46.10;;;;;;5133543;27;20023;-36
2024/01/31 04:26:43;;;;;;;9.80;1.30;;;22.10;46.60;;;;;;5127260;27;20051;-35
2024/01/31 04:29:09;;;;;;;1.38;1.25;;;22.00;46.00;;;;;;5128377;27;20030;-35
2024/01/31 04:31:36;;;;;;;3.63;1.27;;;22.00;46.00;;;;;;5127040;27;20027;-39
2024/01/31 04:34:04;;;;;;;1.52;1.25;;;22.10;46.00;;;;;;5131459;27;20053;-33
2024/01/31 04:36:32;;;;;;;1.40;1.20;;;22.10;46.00;;;;;;5127110;27;20039;-33
2024/01/31 04:38:59;;;;;;;4.43;1.30;;;22.10;46.10;;;;;;5137489;27;20027;-34
2024/01/31 04:41:25;;;;;;;;;;;22.00;46.00;;;;;;5128798;27;20573;-35
2024/01/31 04:43:53;;;;;;;1.33;1.10;;;22.00;46.00;;;;;;5136109;27;19911;-31
2024/01/31 04:46:19;;;;;;;1.10;1.00;;;22.00;46.00;;;;;;5121916;27;20094;-34
2024/01/31 04:48:46;;;;;;;1.33;1.15;;;22.00;45.90;;;;;;5132062;27;20031;-35
2024/01/31 04:51:12;;;;;;;1.67;1.40;;;22.10;46.00;;;;;;5128776;27;20363;-33
2024/01/31 04:53:39;;;;;;;1.25;1.15;;;22.10;46.00;;;;;;5147518;27;20109;-34
2024/01/31 04:56:08;;;;;;;;;;;22.00;46.00;;;;;;5126986;27;20452;-32
2024/01/31 04:58:35;;;;;;;1.55;1.17;;;22.00;46.00;;;;;;5136546;27;19918;-35
2024/01/31 05:01:01;;;;;;;1.10;1.00;;;22.00;46.00;;;;;;5135922;27;20027;-32
2024/01/31 05:03:27;;;;;;;1.15;1.05;;;22.00;46.00;;;;;;5142122;27;20034;-33
2024/01/31 05:05:54;;;;;;;1.33;1.20;;;22.00;46.00;;;;;;5139717;27;20820;-32
2024/01/31 05:08:20;;;;;;;1.38;1.10;;;22.00;46.00;;;;;;5139279;27;20023;-35
2024/01/31 05:10:46;;;;;;;1.45;1.20;;;22.00;46.00;;;;;;5137080;27;20030;-36
2024/01/31 05:13:12;;;;;;;1.30;1.10;;;22.00;46.10;;;;;;5140107;27;20034;-35
2024/01/31 05:15:39;;;;;;;1.20;1.10;;;22.00;46.10;;;;;;5136242;27;20023;-34
2024/01/31 05:18:05;;;;;;;1.63;1.27;;;21.90;46.10;;;;;;5135366;27;20135;-34
2024/01/31 05:20:32;;;;;;;2.08;1.45;;;21.90;46.10;;;;;;5136656;27;20031;-35
2024/01/31 05:22:58;;;;;;;2.28;1.40;;;22.00;46.10;;;;;;5137532;27;20039;-33
2024/01/31 05:25:24;;;;;;;1.38;1.20;;;22.00;46.10;;;;;;5139416;27;20150;-32
2024/01/31 05:27:50;;;;;;;1.80;1.40;;;22.00;46.10;;;;;;5136327;27;20080;-33
2024/01/31 05:30:16;;;;;;;1.20;1.10;;;22.00;46.10;;;;;;5138491;27;20031;-35
2024/01/31 05:32:45;;;;;;;1.40;1.30;;;21.90;46.10;;;;;;5138675;27;20059;-36
2024/01/31 05:35:11;;;;;;;1.15;1.05;;;21.90;46.20;;;;;;5137862;27;20053;-33
2024/01/31 05:37:37;;;;;;;1.30;1.13;;;21.90;46.30;;;;;;5139894;27;20123;-36
2024/01/31 05:40:04;;;;;;;1.30;1.20;;;22.00;46.30;;;;;;5140285;28;20566;-34
2024/01/31 05:42:30;;;;;;;1.83;1.00;;;22.00;46.20;;;;;;5137664;28;20507;-36
2024/01/31 05:44:57;;;;;;;1.48;1.25;;;22.00;46.20;;;;;;5137755;27;20030;-33
2024/01/31 05:47:23;;;;;;;1.42;1.20;;;22.00;46.20;;;;;;5139294;27;20091;-35
2024/01/31 05:49:49;;;;;;;2.88;1.00;;;22.00;46.30;;;;;;5136983;27;20126;-35
2024/01/31 05:52:15;;;;;;;1.08;0.90;;;21.90;46.30;;;;;;5119543;28;20035;-31
2024/01/31 05:54:42;;;;;;;1.17;1.00;;;21.90;46.30;;;;;;5137921;27;20038;-30
2024/01/31 05:57:08;;;;;;;1.35;1.05;;;22.00;46.20;;;;;;5118617;28;20019;-30
2024/01/31 05:59:40;;;;;;;2.72;1.00;;;22.00;46.20;;;;;;5140054;28;20066;-37
2024/01/31 06:02:07;;;;;;;1.58;1.10;;;22.00;46.30;;;;;;5134487;27;20088;-36
2024/01/31 06:04:33;;;;;;;1.77;1.30;;;22.00;46.40;;;;;;5136168;27;20023;-31
2024/01/31 06:06:59;;;;;;;1.77;1.25;;;21.90;46.90;;;;;;5127848;27;20619;-33
2024/01/31 06:09:26;;;;;;;1.42;1.10;;;21.90;46.40;;;;;;5130956;28;20021;-36
2024/01/31 06:11:52;;;;;;;1.02;0.90;;;21.90;46.40;;;;;;5136701;27;20088;-34
2024/01/31 06:14:18;;;;;;;1.25;1.10;;;22.00;46.40;;;;;;5136371;27;20020;-32
2024/01/31 06:16:44;;;;;;;3.35;1.20;;;22.00;46.30;;;;;;5136552;28;20031;-36
2024/01/31 06:19:10;;;;;;;1.08;0.98;;;22.00;46.40;;;;;;5138191;27;20024;-31
2024/01/31 06:21:37;;;;;;;1.38;1.20;;;22.00;46.40;;;;;;5140781;27;20163;-33
2024/01/31 06:24:03;;;;;;;0.98;0.80;;;21.90;46.40;;;;;;5139551;27;20045;-32
2024/01/31 06:26:32;;;;;;;1.05;0.85;;;21.90;46.40;;;;;;5139528;27;20557;-37
2024/01/31 06:28:58;;;;;;;1.20;1.10;;;22.00;46.40;;;;;;5144108;27;20062;-34
2024/01/31 06:31:27;;;;;;;1.10;1.00;;;22.00;46.40;;;;;;5140476;27;20027;-35
2024/01/31 06:33:53;;;;;;;1.40;1.25;;;22.00;46.40;;;;;;5144245;27;20027;-37
2024/01/31 06:36:20;;;;;;;1.00;0.88;;;22.00;46.40;;;;;;5122756;27;20038;-31
2024/01/31 06:38:47;;;;;;;1.15;0.82;;;21.90;46.40;;;;;;5144727;27;20087;-33
2024/01/31 06:41:16;;;;;;;1.40;0.80;;;21.90;46.50;;;;;;5140532;27;20061;-34
2024/01/31 06:43:42;;;;;;;1.58;1.20;;;21.90;46.50;;;;;;5140661;27;20043;-31
2024/01/31 06:46:08;;;;;;;0.85;0.85;;;22.00;46.40;;;;;;5134750;27;20036;-34
2024/01/31 06:48:35;;;;;;;1.00;0.90;;;22.00;46.40;;;;;;5135162;27;20053;-34
2024/01/31 06:51:01;;;;;;;1.15;1.02;;;22.00;46.50;;;;;;5134308;27;20718;-31
2024/01/31 06:53:29;;;;;;;1.00;0.90;;;21.90;46.40;;;;;;5132162;27;20050;-34
2024/01/31 06:55:55;;;;;;;1.40;0.90;;;21.90;46.50;;;;;;5133146;27;20110;-33
2024/01/31 06:58:21;;;;;;;1.08;0.80;;;21.90;46.50;;;;;;5133032;27;20060;-31
2024/01/31 07:00:48;;;;;;;1.02;0.90;;;21.90;46.40;;;;;;5134389;27;20031;-30
2024/01/31 07:03:14;;;;;;;2.25;0.80;;;22.00;46.40;;;;;;5136772;27;20063;-33
2024/01/31 07:05:42;;;;;;;2.05;0.82;;;22.00;46.50;;;;;;5116811;27;20047;-32
2024/01/31 07:08:07;;;;;;;;;;;22.00;46.50;;;;;;5132536;27;20126;-33
2024/01/31 07:10:33;;;;;;;0.73;0.70;;;21.90;46.50;;;;;;5137753;27;19939;-31
2024/01/31 07:13:00;;;;;;;0.80;0.80;;;21.90;46.50;;;;;;5134029;27;20019;-34
2024/01/31 07:15:26;;;;;;;2.55;0.82;;;21.90;46.60;;;;;;5144044;27;20029;-35
2024/01/31 07:17:52;;;;;;;3.08;0.75;;;21.90;46.50;;;;;;5117682;27;20032;-33
2024/01/31 07:20:18;;;;;;;2.58;1.10;;;22.00;46.50;;;;;;5136132;27;20411;-31
2024/01/31 07:22:44;;;;;;;2.78;0.80;;;22.00;46.50;;;;;;5132541;27;20031;-34
2024/01/31 07:25:13;;;;;;;1.10;0.77;;;21.90;46.50;;;;;;5138308;27;20032;-31
2024/01/31 07:27:41;;;;;;;0.82;0.82;;;21.90;46.60;;;;;;5125013;27;20043;-33
2024/01/31 07:30:11;;;;;;;0.80;0.80;;;21.90;46.60;;;;;;5141265;27;20042;-34
2024/01/31 07:32:38;;;;;;;0.77;0.70;;;21.90;46.60;;;;;;5131516;27;20019;-35
2024/01/31 07:35:04;;;;;;;1.00;0.85;;;21.90;46.40;;;;;;5138660;27;20028;-35
2024/01/31 07:37:31;;;;;;;2.10;0.70;;;22.00;46.50;;;;;;5129686;27;20023;-37
2024/01/31 07:39:58;;;;;;;1.58;0.80;;;21.90;46.50;;;;;;5131645;27;20023;-38
2024/01/31 07:42:26;;;;;;;1.08;0.85;;;21.90;46.50;;;;;;5145591;27;20612;-32
2024/01/31 07:44:53;;;;;;;2.13;0.90;;;21.90;46.60;;;;;;5140373;27;20035;-30
2024/01/31 07:47:19;;;;;;;0.80;0.70;;;21.90;46.60;;;;;;5138601;27;20552;-34
2024/01/31 07:49:45;;;;;;;0.80;0.70;;;21.90;46.50;;;;;;5137632;27;20031;-33
2024/01/31 07:52:11;;;;;;;1.33;0.88;;;22.00;46.40;;;;;;5139021;27;20133;-30
2024/01/31 07:54:38;;;;;;;0.80;0.80;;;22.00;46.40;;;;;;5131901;27;20499;-33
2024/01/31 07:57:04;;;;;;;2.28;0.80;;;21.90;46.50;;;;;;5150878;27;20031;-36
2024/01/31 07:59:30;;;;;;;0.90;0.90;;;21.90;46.50;;;;;;5131855;27;20034;-31
2024/01/31 08:01:56;;;;;;;0.85;0.85;;;21.90;46.70;;;;;;5114073;27;20365;-31
2024/01/31 08:04:22;;;;;;;1.13;0.90;;;21.90;46.70;;;;;;5134979;27;20148;-34
2024/01/31 08:06:48;;;;;;;0.93;0.80;;;21.90;46.60;;;;;;5133488;27;20063;-35
2024/01/31 08:09:15;;;;;;;1.63;0.80;;;22.00;46.50;;;;;;5135258;27;20042;-32
2024/01/31 08:11:44;;;;;;;1.07;0.83;;;21.90;46.40;;;;;;5136021;27;20055;-35
2024/01/31 08:14:11;;;;;;;0.90;0.80;;;21.90;46.50;;;;;;5136603;27;20126;-34
2024/01/31 08:16:37;;;;;;;1.23;1.00;;;21.90;46.50;;;;;;5133541;27;20031;-34
2024/01/31 08:19:04;;;;;;;1.17;1.00;;;21.90;46.50;;;;;;5133097;27;20038;-33
2024/01/31 08:21:33;;;;;;;1.27;0.90;;;21.90;46.50;;;;;;5136105;27;20027;-34
2024/01/31 08:24:02;;;;;;;0.98;0.88;;;21.90;46.40;;;;;;5135747;27;20776;-33
2024/01/31 08:26:28;;;;;;;1.05;0.95;;;21.90;46.40;;;;;;5132694;27;20097;-33
2024/01/31 08:28:55;;;;;;;1.30;1.00;;;21.90;46.30;;;;;;5131735;27;20038;-33
2024/01/31 08:31:21;;;;;;;0.95;0.80;;;21.90;46.40;;;;;;5136615;27;20031;-36
2024/01/31 08:33:48;;;;;;;0.90;0.88;;;21.90;46.40;;;;;;5141488;27;20035;-33
2024/01/31 08:36:14;;;;;;;0.85;0.80;;;21.90;46.40;;;;;;5135973;27;20031;-33
2024/01/31 08:38:43;;;;;;;1.17;0.95;;;21.90;46.40;;;;;;5136944;27;20449;-32
2024/01/31 08:41:11;;;;;;;1.40;0.80;;;21.90;46.30;;;;;;5134037;27;20028;-34
2024/01/31 08:43:37;;;;;;;0.82;0.80;;;21.90;46.30;;;;;;5133335;27;20024;-33
2024/01/31 08:46:03;;;;;;;1.15;1.05;;;21.90;46.40;;;;;;5133804;27;20027;-34
2024/01/31 08:48:29;;;;;;;0.90;0.90;;;21.90;46.40;;;;;;5130561;27;20034;-35
2024/01/31 08:50:57;;;;;;;0.80;0.80;;;21.80;46.40;;;;;;5131877;27;20032;-33
2024/01/31 08:53:23;;;;;;;1.25;1.00;;;21.90;46.50;;;;;;5118482;28;20052;-33
2024/01/31 08:55:49;;;;;;;1.20;1.10;;;21.90;46.40;;;;;;5139458;27;20027;-33
2024/01/31 08:58:15;;;;;;;1.63;1.20;;;21.90;46.40;;;;;;5142125;27;20027;-34
2024/01/31 09:00:41;;;;;;;1.48;1.10;;;21.90;46.40;;;;;;5137061;27;20027;-30
2024/01/31 09:03:08;;;;;;;1.02;0.90;;;21.90;46.50;;;;;;5139461;27;20027;-30
2024/01/31 09:05:34;;;;;;;1.55;1.00;;;21.80;46.40;;;;;;5137893;27;20027;-34
2024/01/31 09:08:00;;;;;;;1.00;0.90;;;21.80;46.50;;;;;;5140732;27;20034;-36
2024/01/31 09:10:26;;;;;;;1.65;1.20;;;21.80;46.40;;;;;;5137271;27;20027;-32
2024/01/31 09:12:53;;;;;;;0.98;0.88;;;21.90;46.40;;;;;;5128821;27;20030;-33
2024/01/31 09:15:19;;;;;;;3.90;0.93;;;21.90;46.40;;;;;;5138764;27;20020;-37
2024/01/31 09:17:47;;;;;;;2.70;1.00;;;21.90;46.50;;;;;;5129962;27;20099;-33
2024/01/31 09:20:14;;;;;;;1.00;0.90;;;21.90;46.70;;;;;;5132011;27;20034;-36
2024/01/31 09:22:40;;;;;;;1.00;0.88;;;21.80;46.70;;;;;;5133620;27;20741;-36
2024/01/31 09:25:06;;;;;;;1.08;0.80;;;21.80;46.60;;;;;;5133522;27;20583;-34
2024/01/31 09:27:33;;;;;;;1.10;0.90;;;21.90;46.50;;;;;;5133364;27;20032;-34
2024/01/31 09:29:59;;;;;;;1.25;0.95;;;21.90;46.40;;;;;;5146209;27;20027;-35
2024/01/31 09:32:25;;;;;;;1.23;1.00;;;21.90;46.40;;;;;;5142106;27;20030;-35
2024/01/31 09:34:51;;;;;;;0.98;0.90;;;21.90;46.40;;;;;;5140173;27;20023;-34
2024/01/31 09:37:17;;;;;;;1.20;0.95;;;21.80;46.30;;;;;;5138044;27;20064;-33
2024/01/31 09:39:43;;;;;;;1.02;0.80;;;21.80;46.50;;;;;;5134735;27;20027;-34
2024/01/31 09:42:10;;;;;;;1.13;0.80;;;21.80;46.30;;;;;;5139485;27;20121;-34
2024/01/31 09:44:37;;;;;;;3.08;0.70;;;21.80;46.20;;;;;;5115787;28;20042;-33
2024/01/31 09:47:03;;;;;;;2.25;0.75;;;21.90;46.20;;;;;;5133762;27;20046;-36
2024/01/31 09:49:29;;;;;;;1.07;0.80;;;21.80;46.20;;;;;;5113587;28;20031;-37
2024/01/31 09:51:59;;;;;;;0.70;0.70;;;21.80;46.20;;;;;;5129020;28;20046;-40
2024/01/31 09:54:26;;;;;;;1.05;0.95;;;21.80;46.30;;;;;;5132329;27;20094;-33
2024/01/31 09:56:53;;;;;;;0.80;0.68;;;21.80;46.30;;;;;;5132748;27;20518;-35
2024/01/31 09:59:19;;;;;;;2.85;0.82;;;21.80;46.10;;;;;;5131654;27;20026;-34
2024/01/31 10:01:46;;;;;;;0.90;0.77;;;21.90;46.10;;;;;;5147316;27;20030;-33
2024/01/31 10:04:14;;;;;;;;;;;21.80;46.40;;;;;;5138097;27;20044;-32
2024/01/31 10:06:40;;;;;;;0.75;0.73;;;21.80;46.40;;;;;;5148881;27;19930;-31
2024/01/31 10:09:07;;;;;;;1.00;0.70;;;21.80;46.40;;;;;;5131415;27;20027;-33
2024/01/31 10:11:34;;;;;;;1.00;0.90;;;21.80;46.40;;;;;;5134838;27;20024;-34
2024/01/31 10:14:00;;;;;;;1.08;0.80;;;21.80;46.30;;;;;;5138401;27;20491;-31
2024/01/31 10:16:26;;;;;;;2.53;0.80;;;21.80;46.20;;;;;;5122785;28;20097;-36
2024/01/31 10:18:52;;;;;;;2.92;0.70;;;21.80;46.20;;;;;;5145365;27;20030;-32
2024/01/31 10:21:19;;;;;;;2.25;0.80;;;21.80;46.20;;;;;;5129823;27;20066;-35
2024/01/31 10:24:06;;;;;;;2.28;0.90;;;21.80;46.20;;;;;;5137396;27;20030;-36
2024/01/31 10:26:35;;;;;;;0.82;0.75;;;21.70;46.30;;;;;;5139173;27;20069;-32
2024/01/31 10:29:02;;;;;;;2.55;0.80;;;21.80;46.20;;;;;;5142742;27;20062;-36
2024/01/31 10:31:28;;;;;;;0.65;0.60;;;21.80;46.10;;;;;;5138199;27;20039;-31
2024/01/31 10:33:55;;;;;;;1.52;0.93;;;21.80;46.10;;;;;;5133706;27;20030;-33
2024/01/31 10:36:21;;;;;;;1.10;0.90;;;21.80;46.10;;;;;;5130498;27;20665;-35
2024/01/31 10:38:47;;;;;;;1.02;0.80;;;21.80;46.10;;;;;;5132268;27;20031;-33
2024/01/31 10:41:15;;;;;;;1.17;0.90;;;21.70;46.10;;;;;;5132599;27;20027;-36
2024/01/31 10:43:42;;;;;;;2.55;0.80;;;21.70;46.10;;;;;;5114304;27;20035;-32
2024/01/31 10:46:08;;;;;;;0.95;0.70;;;21.70;46.00;;;;;;5112826;27;20032;-33
2024/01/31 10:48:34;;;;;;;2.40;0.85;;;21.80;46.00;;;;;;5135362;27;20696;-33
2024/01/31 10:51:00;;;;;;;1.95;0.80;;;21.80;46.00;;;;;;5140270;27;20031;-33
2024/01/31 10:53:28;;;;;;;0.80;0.70;;;21.70;46.00;;;;;;5125655;27;20043;-33
2024/01/31 10:55:55;;;;;;;1.13;0.55;;;21.70;46.10;;;;;;5100188;27;20145;-35
2024/01/31 10:58:24;;;;;;;0.90;0.80;;;21.70;46.10;;;;;;5151757;27;20035;-32
2024/01/31 11:00:51;;;;;;;0.88;0.73;;;21.70;46.00;;;;;;5114651;27;20035;-35
2024/01/31 11:03:17;;;;;;;;;;;21.70;46.00;;;;;;5121179;27;20034;-30
2024/01/31 11:05:44;;;;;;;1.02;0.70;;;21.70;46.00;;;;;;5138225;27;19920;-34
2024/01/31 11:08:20;;;;;;;1.90;0.70;;;21.70;46.00;;;;;;5144648;27;20185;-31
2024/01/31 11:10:46;;;;;;;2.03;0.70;;;21.70;46.00;;;;;;5131741;27;20123;-34
2024/01/31 11:13:12;;;;;;;0.85;0.73;;;21.70;46.10;;;;;;5129328;27;20061;-32
2024/01/31 11:15:39;;;;;;;3.13;0.70;;;21.60;46.10;;;;;;5132641;27;20061;-33
2024/01/31 11:18:09;;;;;;;1.63;0.80;;;21.70;46.10;;;;;;5131282;27;20023;-36
2024/01/31 11:20:49;;;;;;;1.25;0.80;;;21.70;46.00;;;;;;5143407;27;20123;-36
2024/01/31 11:23:16;;;;;;;1.55;0.60;;;21.70;46.00;;;;;;5136423;27;20024;-33
2024/01/31 11:25:45;;;;;;;1.05;0.63;;;21.70;46.10;;;;;;5141028;27;20035;-35
2024/01/31 11:28:12;;;;;;;1.05;0.80;;;21.70;46.10;;;;;;5136021;27;20148;-31
2024/01/31 11:30:41;;;;;;;0.90;0.70;;;21.60;46.60;;;;;;5144219;27;20034;-38
2024/01/31 11:33:08;;;;;;;0.95;0.75;;;21.60;46.00;;;;;;5134333;27;20389;-31
2024/01/31 11:35:34;;;;;;;;;;;21.70;46.00;;;;;;5137062;27;20056;-37
2024/01/31 11:38:00;;;;;;;2.80;0.90;;;21.70;46.10;;;;;;5132822;27;19915;-36
2024/01/31 11:40:27;;;;;;;2.40;0.80;;;21.70;46.10;;;;;;5114973;27;20053;-38
2024/01/31 11:42:54;;;;;;;2.75;0.85;;;21.70;46.20;;;;;;5136202;27;20031;-34
2024/01/31 11:45:25;;;;;;;1.95;0.63;;;21.70;46.20;;;;;;5135561;27;20749;-34
2024/01/31 11:47:52;;;;;;;0.73;0.70;;;21.60;46.20;;;;;;5135068;27;20043;-36
2024/01/31 11:50:18;;;;;;;1.10;0.73;;;21.60;46.10;;;;;;5134738;27;20102;-32
2024/01/31 11:52:45;;;;;;;2.05;0.60;;;21.70;45.90;;;;;;5133403;27;20047;-31
2024/01/31 11:55:11;;;;;;;;;;;21.70;45.90;;;;;;5112605;27;20031;-34
2024/01/31 11:57:38;;;;;;;2.00;0.65;;;21.70;45.90;;;;;;5131190;27;19983;-37
2024/01/31 12:00:05;;;;;;;;;;;21.70;45.90;;;;;;5130913;27;20053;-34
2024/01/31 12:02:34;;;;;;;2.53;0.90;;;21.60;45.90;;;;;;5135810;27;19915;-36
2024/01/31 12:05:00;;;;;;;0.57;0.55;;;21.60;46.00;;;;;;5115036;27;20086;-31
2024/01/31 12:07:27;;;;;;;0.90;0.77;;;21.70;45.90;;;;;;5114769;28;20050;-34
2024/01/31 12:09:53;;;;;;;;;;;21.70;45.90;;;;;;5119617;27;20464;-32
2024/01/31 12:12:19;;;;;;;0.82;0.80;;;21.70;45.90;;;;;;5138437;27;19907;-33
2024/01/31 12:14:45;;;;;;;1.15;0.60;;;21.70;46.40;;;;;;5117111;27;20026;-37
2024/01/31 12:17:25;;;;;;;0.98;0.80;;;21.60;45.80;;;;;;5137109;27;20020;-31
2024/01/31 12:20:03;;;;;;;1.27;0.70;;;21.60;45.80;;;;;;5131014;27;20035;-33
2024/01/31 12:22:29;;;;;;;;;;;21.70;45.80;;;;;;5116586;27;20039;-34
2024/01/31 12:24:55;;;;;;;1.35;0.77;;;21.70;45.70;;;;;;5137939;27;19907;-35
2024/01/31 12:27:21;;;;;;;0.90;0.70;;;21.70;45.70;;;;;;5128222;27;20046;-34
2024/01/31 12:29:48;;;;;;;0.70;0.50;;;21.60;45.60;;;;;;5135778;27;20027;-34
2024/01/31 12:32:14;;;;;;;0.60;0.60;;;21.60;45.60;;;;;;5137796;27;20042;-34
2024/01/31 12:34:40;;;;;;;0.98;0.73;;;21.60;45.60;;;;;;5129774;27;20073;-35
2024/01/31 12:37:06;;;;;;;0.77;0.70;;;21.60;45.60;;;;;;5127474;27;20027;-35
2024/01/31 12:39:35;;;;;;;0.80;0.80;;;21.70;45.60;;;;;;5133321;27;20045;-34
2024/01/31 12:42:06;;;;;;;0.98;0.63;;;21.70;45.50;;;;;;5135956;27;20042;-32
2024/01/31 12:44:32;;;;;;;0.75;0.55;;;21.70;45.50;;;;;;5126612;27;20018;-34
2024/01/31 12:46:59;;;;;;;0.60;0.60;;;21.60;45.50;;;;;;5130693;27;20066;-34